sensor_id;sensor_type;location;lat;lon;timestamp;P1;durP1;ratioP1;P2;durP2;ratioP2
67595;SDS011;54410;48.694;8.934;2024-03-23T00:54:17;7.27;;;6.13;;
67595;SDS011;54410;48.694;8.934;2024-03-23T00:56:42;7.77;;;6.97;;
67595;SDS011;54410;48.694;8.934;2024-03-23T00:59:08;7.73;;;6.17;;
67595;SDS011;54410;48.694;8.934;2024-03-23T01:01:34;6.97;;;6.27;;
67595;SDS011;54410;48.694;8.934;2024-03-23T01:04:00;9.47;;;6.23;;
67595;SDS011;54410;48.694;8.934;2024-03-23T01:06:26;6.30;;;5.37;;
67595;SDS011;54410;48.694;8.934;2024-03-23T01:08:52;7.73;;;5.40;;
67595;SDS011;54410;48.694;8.934;2024-03-23T01:11:17;5.40;;;4.87;;
67595;SDS011;54410;48.694;8.934;2024-03-23T01:13:43;4.97;;;4.47;;
67595;SDS011;54410;48.694;8.934;2024-03-23T01:16:09;5.17;;;4.67;;
67595;SDS011;54410;48.694;8.934;2024-03-23T01:18:35;5.13;;;4.63;;
67595;SDS011;54410;48.694;8.934;2024-03-23T01:21:01;9.00;;;4.57;;
67595;SDS011;54410;48.694;8.934;2024-03-23T01:23:27;5.35;;;4.25;;
67595;SDS011;54410;48.694;8.934;2024-03-23T01:25:53;4.88;;;4.07;;
67595;SDS011;54410;48.694;8.934;2024-03-23T01:28:19;5.43;;;4.20;;
67595;SDS011;54410;48.694;8.934;2024-03-23T01:30:45;4.45;;;4.05;;
67595;SDS011;54410;48.694;8.934;2024-03-23T01:33:11;5.38;;;4.13;;
67595;SDS011;54410;48.694;8.934;2024-03-23T01:35:38;6.85;;;4.10;;
67595;SDS011;54410;48.694;8.934;2024-03-23T01:38:04;5.90;;;5.40;;
67595;SDS011;54410;48.694;8.934;2024-03-23T01:40:30;6.60;;;4.10;;
67595;SDS011;54410;48.694;8.934;2024-03-23T01:43:03;5.70;;;3.80;;
67595;SDS011;54410;48.694;8.934;2024-03-23T01:45:34;4.93;;;3.92;;
67595;SDS011;54410;48.694;8.934;2024-03-23T01:48:00;4.20;;;3.90;;
67595;SDS011;54410;48.694;8.934;2024-03-23T01:50:26;5.28;;;4.05;;
67595;SDS011;54410;48.694;8.934;2024-03-23T01:52:52;4.20;;;3.80;;
67595;SDS011;54410;48.694;8.934;2024-03-23T01:55:19;4.45;;;4.03;;
67595;SDS011;54410;48.694;8.934;2024-03-23T01:57:45;5.20;;;4.22;;
67595;SDS011;54410;48.694;8.934;2024-03-23T02:00:10;4.40;;;4.00;;
67595;SDS011;54410;48.694;8.934;2024-03-23T02:02:46;4.35;;;3.95;;
67595;SDS011;54410;48.694;8.934;2024-03-23T02:05:12;4.95;;;4.32;;
67595;SDS011;54410;48.694;8.934;2024-03-23T02:07:39;7.60;;;4.57;;
67595;SDS011;54410;48.694;8.934;2024-03-23T02:10:08;4.25;;;3.88;;
67595;SDS011;54410;48.694;8.934;2024-03-23T02:12:35;5.55;;;4.65;;
67595;SDS011;54410;48.694;8.934;2024-03-23T02:15:01;5.15;;;4.18;;
67595;SDS011;54410;48.694;8.934;2024-03-23T02:17:28;4.38;;;3.97;;
67595;SDS011;54410;48.694;8.934;2024-03-23T02:19:54;5.40;;;4.10;;
67595;SDS011;54410;48.694;8.934;2024-03-23T02:22:20;4.75;;;4.30;;
67595;SDS011;54410;48.694;8.934;2024-03-23T02:24:46;4.85;;;4.45;;
67595;SDS011;54410;48.694;8.934;2024-03-23T02:27:12;5.70;;;4.40;;
67595;SDS011;54410;48.694;8.934;2024-03-23T02:29:38;5.53;;;4.72;;
67595;SDS011;54410;48.694;8.934;2024-03-23T02:32:04;6.10;;;4.18;;
67595;SDS011;54410;48.694;8.934;2024-03-23T02:34:29;4.03;;;3.72;;
67595;SDS011;54410;48.694;8.934;2024-03-23T02:36:55;4.78;;;4.30;;
67595;SDS011;54410;48.694;8.934;2024-03-23T02:39:21;4.70;;;4.30;;
67595;SDS011;54410;48.694;8.934;2024-03-23T02:41:47;6.82;;;4.47;;
67595;SDS011;54410;48.694;8.934;2024-03-23T02:44:13;5.30;;;4.80;;
67595;SDS011;54410;48.694;8.934;2024-03-23T02:46:39;5.20;;;4.70;;
67595;SDS011;54410;48.694;8.934;2024-03-23T02:49:06;5.40;;;4.38;;
67595;SDS011;54410;48.694;8.934;2024-03-23T02:51:32;5.78;;;4.40;;
67595;SDS011;54410;48.694;8.934;2024-03-23T02:53:58;4.60;;;4.20;;
67595;SDS011;54410;48.694;8.934;2024-03-23T02:56:23;5.68;;;4.55;;
67595;SDS011;54410;48.694;8.934;2024-03-23T02:58:49;5.82;;;4.60;;
67595;SDS011;54410;48.694;8.934;2024-03-23T03:01:15;4.88;;;4.47;;
67595;SDS011;54410;48.694;8.934;2024-03-23T03:03:41;6.53;;;4.95;;
67595;SDS011;54410;48.694;8.934;2024-03-23T03:06:07;5.00;;;4.50;;
67595;SDS011;54410;48.694;8.934;2024-03-23T03:08:33;4.93;;;4.47;;
67595;SDS011;54410;48.694;8.934;2024-03-23T03:10:59;5.03;;;4.55;;
67595;SDS011;54410;48.694;8.934;2024-03-23T03:13:25;5.63;;;4.70;;
67595;SDS011;54410;48.694;8.934;2024-03-23T03:15:50;4.88;;;4.47;;
67595;SDS011;54410;48.694;8.934;2024-03-23T03:18:16;6.03;;;4.80;;
67595;SDS011;54410;48.694;8.934;2024-03-23T03:20:42;5.38;;;4.80;;
67595;SDS011;54410;48.694;8.934;2024-03-23T03:23:08;7.05;;;5.28;;
67595;SDS011;54410;48.694;8.934;2024-03-23T03:25:34;7.05;;;5.25;;
67595;SDS011;54410;48.694;8.934;2024-03-23T03:28:00;6.00;;;4.60;;
67595;SDS011;54410;48.694;8.934;2024-03-23T03:30:26;5.13;;;4.47;;
67595;SDS011;54410;48.694;8.934;2024-03-23T03:32:53;5.38;;;4.88;;
67595;SDS011;54410;48.694;8.934;2024-03-23T03:35:19;5.50;;;4.80;;
67595;SDS011;54410;48.694;8.934;2024-03-23T03:37:45;5.20;;;4.72;;
67595;SDS011;54410;48.694;8.934;2024-03-23T03:40:11;4.85;;;4.45;;
67595;SDS011;54410;48.694;8.934;2024-03-23T03:42:37;6.32;;;4.82;;
67595;SDS011;54410;48.694;8.934;2024-03-23T03:45:03;6.85;;;4.78;;
67595;SDS011;54410;48.694;8.934;2024-03-23T03:47:30;5.78;;;4.82;;
67595;SDS011;54410;48.694;8.934;2024-03-23T03:49:56;6.88;;;4.85;;
67595;SDS011;54410;48.694;8.934;2024-03-23T03:52:22;5.20;;;4.80;;
67595;SDS011;54410;48.694;8.934;2024-03-23T03:54:48;6.20;;;4.73;;
67595;SDS011;54410;48.694;8.934;2024-03-23T03:57:14;5.25;;;4.72;;
67595;SDS011;54410;48.694;8.934;2024-03-23T03:59:40;5.63;;;5.13;;
67595;SDS011;54410;48.694;8.934;2024-03-23T04:02:06;6.45;;;4.78;;
67595;SDS011;54410;48.694;8.934;2024-03-23T04:04:32;5.15;;;4.75;;
67595;SDS011;54410;48.694;8.934;2024-03-23T04:07:01;4.90;;;4.35;;
67595;SDS011;54410;48.694;8.934;2024-03-23T04:09:27;5.97;;;5.40;;
67595;SDS011;54410;48.694;8.934;2024-03-23T04:11:54;7.85;;;5.00;;
67595;SDS011;54410;48.694;8.934;2024-03-23T04:14:19;6.53;;;5.00;;
67595;SDS011;54410;48.694;8.934;2024-03-23T04:16:46;5.65;;;5.05;;
67595;SDS011;54410;48.694;8.934;2024-03-23T04:19:12;5.30;;;4.80;;
67595;SDS011;54410;48.694;8.934;2024-03-23T04:21:39;6.28;;;4.88;;
67595;SDS011;54410;48.694;8.934;2024-03-23T04:24:05;5.10;;;4.60;;
67595;SDS011;54410;48.694;8.934;2024-03-23T04:26:39;8.77;;;5.00;;
67595;SDS011;54410;48.694;8.934;2024-03-23T04:29:05;6.57;;;5.05;;
67595;SDS011;54410;48.694;8.934;2024-03-23T04:31:32;8.27;;;5.03;;
67595;SDS011;54410;48.694;8.934;2024-03-23T04:33:59;7.05;;;4.72;;
67595;SDS011;54410;48.694;8.934;2024-03-23T04:36:25;4.57;;;4.15;;
67595;SDS011;54410;48.694;8.934;2024-03-23T04:38:51;6.00;;;4.82;;
67595;SDS011;54410;48.694;8.934;2024-03-23T04:41:17;4.80;;;3.47;;
67595;SDS011;54410;48.694;8.934;2024-03-23T04:43:43;5.10;;;4.15;;
67595;SDS011;54410;48.694;8.934;2024-03-23T04:46:09;5.78;;;4.35;;
67595;SDS011;54410;48.694;8.934;2024-03-23T04:48:34;5.90;;;4.75;;
67595;SDS011;54410;48.694;8.934;2024-03-23T04:51:01;6.30;;;4.78;;
67595;SDS011;54410;48.694;8.934;2024-03-23T04:53:27;6.80;;;5.00;;
67595;SDS011;54410;48.694;8.934;2024-03-23T04:55:54;6.50;;;5.15;;
67595;SDS011;54410;48.694;8.934;2024-03-23T04:58:20;7.82;;;7.03;;
67595;SDS011;54410;48.694;8.934;2024-03-23T05:00:46;8.77;;;7.10;;
67595;SDS011;54410;48.694;8.934;2024-03-23T05:03:11;9.32;;;7.30;;
67595;SDS011;54410;48.694;8.934;2024-03-23T05:05:37;8.68;;;7.78;;
67595;SDS011;54410;48.694;8.934;2024-03-23T05:08:04;10.90;;;7.85;;
67595;SDS011;54410;48.694;8.934;2024-03-23T05:10:30;9.25;;;8.23;;
67595;SDS011;54410;48.694;8.934;2024-03-23T05:12:57;13.27;;;8.95;;
67595;SDS011;54410;48.694;8.934;2024-03-23T05:15:23;13.43;;;9.73;;
67595;SDS011;54410;48.694;8.934;2024-03-23T05:17:49;15.77;;;11.30;;
67595;SDS011;54410;48.694;8.934;2024-03-23T05:20:15;15.80;;;11.23;;
67595;SDS011;54410;48.694;8.934;2024-03-23T05:22:41;14.63;;;10.45;;
67595;SDS011;54410;48.694;8.934;2024-03-23T05:25:07;17.15;;;11.50;;
67595;SDS011;54410;48.694;8.934;2024-03-23T05:27:34;16.88;;;11.88;;
67595;SDS011;54410;48.694;8.934;2024-03-23T05:30:00;16.35;;;11.70;;
67595;SDS011;54410;48.694;8.934;2024-03-23T05:32:26;18.17;;;12.13;;
67595;SDS011;54410;48.694;8.934;2024-03-23T05:34:53;18.00;;;11.65;;
67595;SDS011;54410;48.694;8.934;2024-03-23T05:37:21;17.08;;;12.52;;
67595;SDS011;54410;48.694;8.934;2024-03-23T05:39:47;20.77;;;11.98;;
67595;SDS011;54410;48.694;8.934;2024-03-23T05:42:15;17.25;;;11.35;;
67595;SDS011;54410;48.694;8.934;2024-03-23T05:44:42;18.20;;;11.80;;
67595;SDS011;54410;48.694;8.934;2024-03-23T05:47:11;16.20;;;10.95;;
67595;SDS011;54410;48.694;8.934;2024-03-23T05:49:41;16.20;;;11.05;;
67595;SDS011;54410;48.694;8.934;2024-03-23T05:52:07;12.43;;;9.43;;
67595;SDS011;54410;48.694;8.934;2024-03-23T05:54:34;11.57;;;8.88;;
67595;SDS011;54410;48.694;8.934;2024-03-23T05:57:00;12.02;;;8.32;;
67595;SDS011;54410;48.694;8.934;2024-03-23T05:59:26;14.80;;;9.27;;
67595;SDS011;54410;48.694;8.934;2024-03-23T06:01:52;10.40;;;6.90;;
67595;SDS011;54410;48.694;8.934;2024-03-23T06:04:18;7.07;;;5.43;;
67595;SDS011;54410;48.694;8.934;2024-03-23T06:06:44;6.20;;;5.30;;
67595;SDS011;54410;48.694;8.934;2024-03-23T06:09:10;7.45;;;5.78;;
67595;SDS011;54410;48.694;8.934;2024-03-23T06:11:36;6.93;;;4.85;;
67595;SDS011;54410;48.694;8.934;2024-03-23T06:14:03;4.80;;;4.10;;
67595;SDS011;54410;48.694;8.934;2024-03-23T06:16:29;4.63;;;4.13;;
67595;SDS011;54410;48.694;8.934;2024-03-23T06:18:55;4.45;;;4.05;;
67595;SDS011;54410;48.694;8.934;2024-03-23T06:21:21;5.03;;;4.07;;
67595;SDS011;54410;48.694;8.934;2024-03-23T06:23:51;4.40;;;4.00;;
67595;SDS011;54410;48.694;8.934;2024-03-23T06:26:20;4.13;;;3.72;;
67595;SDS011;54410;48.694;8.934;2024-03-23T06:28:46;4.00;;;3.60;;
67595;SDS011;54410;48.694;8.934;2024-03-23T06:31:12;3.70;;;3.40;;
67595;SDS011;54410;48.694;8.934;2024-03-23T06:33:38;3.07;;;2.87;;
67595;SDS011;54410;48.694;8.934;2024-03-23T06:36:06;2.80;;;2.60;;
67595;SDS011;54410;48.694;8.934;2024-03-23T06:38:32;2.30;;;2.20;;
67595;SDS011;54410;48.694;8.934;2024-03-23T06:40:58;3.33;;;2.27;;
67595;SDS011;54410;48.694;8.934;2024-03-23T06:43:23;2.63;;;2.43;;
67595;SDS011;54410;48.694;8.934;2024-03-23T06:45:55;2.30;;;2.13;;
67595;SDS011;54410;48.694;8.934;2024-03-23T06:48:21;2.40;;;2.20;;
67595;SDS011;54410;48.694;8.934;2024-03-23T06:50:48;2.80;;;2.60;;
67595;SDS011;54410;48.694;8.934;2024-03-23T06:53:14;2.20;;;2.10;;
67595;SDS011;54410;48.694;8.934;2024-03-23T06:55:40;2.53;;;2.33;;
67595;SDS011;54410;48.694;8.934;2024-03-23T06:58:06;2.10;;;2.00;;
67595;SDS011;54410;48.694;8.934;2024-03-23T07:00:32;2.07;;;1.97;;
67595;SDS011;54410;48.694;8.934;2024-03-23T07:02:58;2.00;;;1.90;;
67595;SDS011;54410;48.694;8.934;2024-03-23T07:05:24;2.00;;;1.90;;
67595;SDS011;54410;48.694;8.934;2024-03-23T07:07:50;1.92;;;1.83;;
67595;SDS011;54410;48.694;8.934;2024-03-23T07:10:16;1.83;;;1.73;;
67595;SDS011;54410;48.694;8.934;2024-03-23T07:12:42;1.80;;;1.70;;
67595;SDS011;54410;48.694;8.934;2024-03-23T07:15:09;2.00;;;1.90;;
67595;SDS011;54410;48.694;8.934;2024-03-23T07:17:35;1.80;;;1.70;;
67595;SDS011;54410;48.694;8.934;2024-03-23T07:20:01;1.88;;;1.77;;
67595;SDS011;54410;48.694;8.934;2024-03-23T07:22:29;1.92;;;1.83;;
67595;SDS011;54410;48.694;8.934;2024-03-23T07:24:55;1.70;;;1.60;;
67595;SDS011;54410;48.694;8.934;2024-03-23T07:27:21;2.08;;;1.98;;
67595;SDS011;54410;48.694;8.934;2024-03-23T07:29:48;2.20;;;2.10;;
67595;SDS011;54410;48.694;8.934;2024-03-23T07:32:14;4.22;;;3.83;;
67595;SDS011;54410;48.694;8.934;2024-03-23T07:34:41;2.43;;;2.23;;
67595;SDS011;54410;48.694;8.934;2024-03-23T07:37:08;2.03;;;1.92;;
67595;SDS011;54410;48.694;8.934;2024-03-23T07:39:34;8.40;;;5.30;;
67595;SDS011;54410;48.694;8.934;2024-03-23T07:42:00;5.00;;;3.90;;
67595;SDS011;54410;48.694;8.934;2024-03-23T07:44:26;10.80;;;6.23;;
67595;SDS011;54410;48.694;8.934;2024-03-23T07:46:52;13.23;;;8.90;;
67595;SDS011;54410;48.694;8.934;2024-03-23T07:49:18;2.90;;;2.70;;
67595;SDS011;54410;48.694;8.934;2024-03-23T07:51:44;2.50;;;2.20;;
67595;SDS011;54410;48.694;8.934;2024-03-23T07:54:10;4.93;;;4.43;;
67595;SDS011;54410;48.694;8.934;2024-03-23T07:56:36;6.50;;;4.90;;
67595;SDS011;54410;48.694;8.934;2024-03-23T07:59:02;5.03;;;4.30;;
67595;SDS011;54410;48.694;8.934;2024-03-23T08:01:30;3.27;;;2.97;;
67595;SDS011;54410;48.694;8.934;2024-03-23T08:03:56;2.53;;;2.43;;
67595;SDS011;54410;48.694;8.934;2024-03-23T08:06:22;2.30;;;2.20;;
67595;SDS011;54410;48.694;8.934;2024-03-23T08:08:49;2.23;;;2.10;;
67595;SDS011;54410;48.694;8.934;2024-03-23T08:11:16;1.90;;;1.80;;
67595;SDS011;54410;48.694;8.934;2024-03-23T08:13:42;2.10;;;2.00;;
67595;SDS011;54410;48.694;8.934;2024-03-23T08:16:10;1.80;;;1.80;;
67595;SDS011;54410;48.694;8.934;2024-03-23T08:18:36;2.45;;;1.90;;
67595;SDS011;54410;48.694;8.934;2024-03-23T08:21:02;1.77;;;1.67;;
67595;SDS011;54410;48.694;8.934;2024-03-23T08:23:29;1.90;;;1.80;;
67595;SDS011;54410;48.694;8.934;2024-03-23T08:25:59;1.83;;;1.70;;
67595;SDS011;54410;48.694;8.934;2024-03-23T08:28:25;2.10;;;2.00;;
67595;SDS011;54410;48.694;8.934;2024-03-23T08:30:51;3.05;;;2.60;;
67595;SDS011;54410;48.694;8.934;2024-03-23T08:33:17;2.30;;;2.20;;
67595;SDS011;54410;48.694;8.934;2024-03-23T08:35:52;2.38;;;2.17;;
67595;SDS011;54410;48.694;8.934;2024-03-23T08:38:19;2.50;;;2.30;;
67595;SDS011;54410;48.694;8.934;2024-03-23T08:40:45;2.30;;;2.15;;
67595;SDS011;54410;48.694;8.934;2024-03-23T08:43:10;2.75;;;2.55;;
67595;SDS011;54410;48.694;8.934;2024-03-23T08:45:36;2.30;;;2.10;;
67595;SDS011;54410;48.694;8.934;2024-03-23T08:48:02;2.67;;;2.47;;
67595;SDS011;54410;48.694;8.934;2024-03-23T08:50:29;3.63;;;2.60;;
67595;SDS011;54410;48.694;8.934;2024-03-23T08:52:54;3.70;;;2.72;;
67595;SDS011;54410;48.694;8.934;2024-03-23T08:55:20;4.38;;;3.00;;
67595;SDS011;54410;48.694;8.934;2024-03-23T08:57:46;3.20;;;2.70;;
67595;SDS011;54410;48.694;8.934;2024-03-23T09:00:12;3.75;;;3.38;;
67595;SDS011;54410;48.694;8.934;2024-03-23T09:02:39;6.38;;;3.80;;
67595;SDS011;54410;48.694;8.934;2024-03-23T09:05:05;4.20;;;3.80;;
67595;SDS011;54410;48.694;8.934;2024-03-23T09:07:31;4.22;;;3.58;;
67595;SDS011;54410;48.694;8.934;2024-03-23T09:09:57;4.72;;;3.65;;
67595;SDS011;54410;48.694;8.934;2024-03-23T09:12:23;4.95;;;3.22;;
67595;SDS011;54410;48.694;8.934;2024-03-23T09:14:52;3.92;;;3.47;;
67595;SDS011;54410;48.694;8.934;2024-03-23T09:17:18;5.30;;;3.35;;
67595;SDS011;54410;48.694;8.934;2024-03-23T09:19:44;4.32;;;3.47;;
67595;SDS011;54410;48.694;8.934;2024-03-23T09:22:10;3.95;;;3.65;;
67595;SDS011;54410;48.694;8.934;2024-03-23T09:24:36;6.95;;;3.88;;
67595;SDS011;54410;48.694;8.934;2024-03-23T09:27:03;4.75;;;3.75;;
67595;SDS011;54410;48.694;8.934;2024-03-23T09:29:29;5.88;;;4.45;;
67595;SDS011;54410;48.694;8.934;2024-03-23T09:31:55;7.50;;;3.67;;
67595;SDS011;54410;48.694;8.934;2024-03-23T09:34:21;6.95;;;4.22;;
67595;SDS011;54410;48.694;8.934;2024-03-23T09:36:47;6.65;;;4.53;;
67595;SDS011;54410;48.694;8.934;2024-03-23T09:39:13;6.53;;;4.38;;
67595;SDS011;54410;48.694;8.934;2024-03-23T09:41:39;6.07;;;4.20;;
67595;SDS011;54410;48.694;8.934;2024-03-23T09:44:06;4.93;;;3.80;;
67595;SDS011;54410;48.694;8.934;2024-03-23T09:46:32;5.88;;;4.43;;
67595;SDS011;54410;48.694;8.934;2024-03-23T09:49:00;5.38;;;3.70;;
67595;SDS011;54410;48.694;8.934;2024-03-23T09:51:29;9.15;;;4.35;;
67595;SDS011;54410;48.694;8.934;2024-03-23T09:53:54;4.47;;;3.65;;
67595;SDS011;54410;48.694;8.934;2024-03-23T09:56:21;6.18;;;3.63;;
67595;SDS011;54410;48.694;8.934;2024-03-23T09:58:46;7.88;;;3.45;;
67595;SDS011;54410;48.694;8.934;2024-03-23T10:01:12;5.78;;;3.00;;
67595;SDS011;54410;48.694;8.934;2024-03-23T10:03:42;4.25;;;3.38;;
67595;SDS011;54410;48.694;8.934;2024-03-23T10:06:08;5.95;;;3.90;;
67595;SDS011;54410;48.694;8.934;2024-03-23T10:08:34;9.50;;;4.35;;
67595;SDS011;54410;48.694;8.934;2024-03-23T10:11:12;5.57;;;4.00;;
67595;SDS011;54410;48.694;8.934;2024-03-23T10:13:41;6.95;;;4.22;;
67595;SDS011;54410;48.694;8.934;2024-03-23T10:16:08;5.05;;;3.50;;
67595;SDS011;54410;48.694;8.934;2024-03-23T10:18:38;7.65;;;3.92;;
67595;SDS011;54410;48.694;8.934;2024-03-23T10:21:10;8.43;;;4.30;;
67595;SDS011;54410;48.694;8.934;2024-03-23T10:23:37;9.20;;;4.28;;
67595;SDS011;54410;48.694;8.934;2024-03-23T10:28:55;7.85;;;4.68;;
67595;SDS011;54410;48.694;8.934;2024-03-23T10:31:32;7.13;;;4.25;;
67595;SDS011;54410;48.694;8.934;2024-03-23T10:34:01;8.00;;;4.72;;
67595;SDS011;54410;48.694;8.934;2024-03-23T10:36:27;5.15;;;4.30;;
67595;SDS011;54410;48.694;8.934;2024-03-23T10:38:54;7.05;;;4.50;;
67595;SDS011;54410;48.694;8.934;2024-03-23T10:41:19;6.85;;;4.50;;
67595;SDS011;54410;48.694;8.934;2024-03-23T10:43:46;5.38;;;3.10;;
67595;SDS011;54410;48.694;8.934;2024-03-23T10:46:12;3.40;;;3.10;;
67595;SDS011;54410;48.694;8.934;2024-03-23T10:48:38;3.70;;;2.90;;
67595;SDS011;54410;48.694;8.934;2024-03-23T10:51:08;3.30;;;3.10;;
67595;SDS011;54410;48.694;8.934;2024-03-23T10:53:34;6.37;;;3.50;;
67595;SDS011;54410;48.694;8.934;2024-03-23T10:56:00;7.20;;;4.33;;
67595;SDS011;54410;48.694;8.934;2024-03-23T10:58:30;7.27;;;4.67;;
67595;SDS011;54410;48.694;8.934;2024-03-23T11:00:56;7.63;;;4.40;;
67595;SDS011;54410;48.694;8.934;2024-03-23T11:03:36;5.97;;;4.13;;
67595;SDS011;54410;48.694;8.934;2024-03-23T11:06:03;6.17;;;3.97;;
67595;SDS011;54410;48.694;8.934;2024-03-23T11:08:32;5.67;;;3.67;;
67595;SDS011;54410;48.694;8.934;2024-03-23T11:11:11;4.83;;;3.43;;
67595;SDS011;54410;48.694;8.934;2024-03-23T11:13:38;3.93;;;3.23;;
67595;SDS011;54410;48.694;8.934;2024-03-23T11:22:04;3.87;;;3.00;;
67595;SDS011;54410;48.694;8.934;2024-03-23T11:24:30;3.30;;;3.10;;
67595;SDS011;54410;48.694;8.934;2024-03-23T11:26:56;3.07;;;2.57;;
67595;SDS011;54410;48.694;8.934;2024-03-23T11:29:25;3.50;;;3.20;;
67595;SDS011;54410;48.694;8.934;2024-03-23T11:31:52;4.50;;;2.90;;
67595;SDS011;54410;48.694;8.934;2024-03-23T11:34:21;3.45;;;2.75;;
67595;SDS011;54410;48.694;8.934;2024-03-23T11:36:47;3.22;;;2.50;;
67595;SDS011;54410;48.694;8.934;2024-03-23T11:39:16;5.00;;;2.83;;
67595;SDS011;54410;48.694;8.934;2024-03-23T11:44:14;4.25;;;2.90;;
67595;SDS011;54410;48.694;8.934;2024-03-23T11:46:40;3.92;;;2.55;;
67595;SDS011;54410;48.694;8.934;2024-03-23T11:49:06;5.45;;;2.58;;
67595;SDS011;54410;48.694;8.934;2024-03-23T11:51:32;5.88;;;2.85;;
67595;SDS011;54410;48.694;8.934;2024-03-23T11:54:07;5.53;;;2.75;;
67595;SDS011;54410;48.694;8.934;2024-03-23T11:56:33;7.28;;;2.90;;
67595;SDS011;54410;48.694;8.934;2024-03-23T11:58:59;3.70;;;2.58;;
67595;SDS011;54410;48.694;8.934;2024-03-23T12:01:25;6.00;;;3.08;;
67595;SDS011;54410;48.694;8.934;2024-03-23T12:03:51;5.50;;;2.90;;
67595;SDS011;54410;48.694;8.934;2024-03-23T12:06:19;5.95;;;2.85;;
67595;SDS011;54410;48.694;8.934;2024-03-23T12:08:45;6.25;;;3.25;;
67595;SDS011;54410;48.694;8.934;2024-03-23T12:13:39;5.10;;;3.00;;
67595;SDS011;54410;48.694;8.934;2024-03-23T12:16:11;7.20;;;3.25;;
67595;SDS011;54410;48.694;8.934;2024-03-23T12:18:37;8.93;;;3.50;;
67595;SDS011;54410;48.694;8.934;2024-03-23T12:21:04;5.68;;;3.30;;
67595;SDS011;54410;48.694;8.934;2024-03-23T12:23:30;4.28;;;3.35;;
67595;SDS011;54410;48.694;8.934;2024-03-23T12:25:55;5.57;;;3.13;;
67595;SDS011;54410;48.694;8.934;2024-03-23T12:28:22;6.45;;;3.28;;
67595;SDS011;54410;48.694;8.934;2024-03-23T12:30:48;7.03;;;3.78;;
67595;SDS011;54410;48.694;8.934;2024-03-23T12:33:14;8.20;;;3.78;;
67595;SDS011;54410;48.694;8.934;2024-03-23T12:35:39;5.97;;;3.85;;
67595;SDS011;54410;48.694;8.934;2024-03-23T12:38:05;7.88;;;3.85;;
67595;SDS011;54410;48.694;8.934;2024-03-23T12:40:32;4.95;;;3.40;;
67595;SDS011;54410;48.694;8.934;2024-03-23T12:42:58;5.18;;;3.08;;
67595;SDS011;54410;48.694;8.934;2024-03-23T12:45:24;6.93;;;3.10;;
67595;SDS011;54410;48.694;8.934;2024-03-23T12:47:50;8.43;;;3.72;;
67595;SDS011;54410;48.694;8.934;2024-03-23T12:50:19;9.32;;;3.28;;
67595;SDS011;54410;48.694;8.934;2024-03-23T12:52:45;4.55;;;3.30;;
67595;SDS011;54410;48.694;8.934;2024-03-23T12:55:11;4.55;;;3.22;;
67595;SDS011;54410;48.694;8.934;2024-03-23T12:57:37;6.22;;;3.17;;
67595;SDS011;54410;48.694;8.934;2024-03-23T13:00:04;6.68;;;2.67;;
67595;SDS011;54410;48.694;8.934;2024-03-23T13:02:31;7.35;;;2.97;;
67595;SDS011;54410;48.694;8.934;2024-03-23T13:04:59;4.15;;;2.70;;
67595;SDS011;54410;48.694;8.934;2024-03-23T13:07:25;5.35;;;2.40;;
67595;SDS011;54410;48.694;8.934;2024-03-23T13:09:52;3.25;;;1.92;;
67595;SDS011;54410;48.694;8.934;2024-03-23T13:12:20;2.25;;;2.05;;
67595;SDS011;54410;48.694;8.934;2024-03-23T13:14:46;2.53;;;2.30;;
67595;SDS011;54410;48.694;8.934;2024-03-23T13:17:12;2.30;;;2.00;;
67595;SDS011;54410;48.694;8.934;2024-03-23T13:19:38;2.13;;;2.00;;
67595;SDS011;54410;48.694;8.934;2024-03-23T13:22:05;2.53;;;2.20;;
67595;SDS011;54410;48.694;8.934;2024-03-23T13:24:31;3.13;;;2.10;;
67595;SDS011;54410;48.694;8.934;2024-03-23T13:26:57;5.35;;;2.30;;
67595;SDS011;54410;48.694;8.934;2024-03-23T13:29:23;1.98;;;1.80;;
67595;SDS011;54410;48.694;8.934;2024-03-23T13:31:49;3.75;;;2.22;;
67595;SDS011;54410;48.694;8.934;2024-03-23T13:34:16;2.15;;;2.05;;
67595;SDS011;54410;48.694;8.934;2024-03-23T13:36:43;2.05;;;1.95;;
67595;SDS011;54410;48.694;8.934;2024-03-23T13:39:09;2.22;;;2.00;;
67595;SDS011;54410;48.694;8.934;2024-03-23T13:44:05;3.10;;;2.30;;
67595;SDS011;54410;48.694;8.934;2024-03-23T13:46:31;3.65;;;2.80;;
67595;SDS011;54410;48.694;8.934;2024-03-23T13:48:57;2.88;;;2.22;;
67595;SDS011;54410;48.694;8.934;2024-03-23T13:51:23;3.90;;;2.60;;
67595;SDS011;54410;48.694;8.934;2024-03-23T13:53:51;3.63;;;2.42;;
67595;SDS011;54410;48.694;8.934;2024-03-23T13:56:17;4.72;;;2.78;;
67595;SDS011;54410;48.694;8.934;2024-03-23T13:58:43;4.30;;;2.60;;
67595;SDS011;54410;48.694;8.934;2024-03-23T14:01:11;4.73;;;2.43;;
67595;SDS011;54410;48.694;8.934;2024-03-23T14:03:37;4.57;;;2.97;;
67595;SDS011;54410;48.694;8.934;2024-03-23T14:06:03;2.80;;;2.60;;
67595;SDS011;54410;48.694;8.934;2024-03-23T14:08:32;2.60;;;2.40;;
67595;SDS011;54410;48.694;8.934;2024-03-23T14:11:00;2.80;;;2.60;;
67595;SDS011;54410;48.694;8.934;2024-03-23T14:13:27;2.60;;;2.40;;
67595;SDS011;54410;48.694;8.934;2024-03-23T14:15:55;2.30;;;2.17;;
67595;SDS011;54410;48.694;8.934;2024-03-23T14:18:21;6.27;;;2.70;;
67595;SDS011;54410;48.694;8.934;2024-03-23T14:20:51;3.50;;;2.20;;
67595;SDS011;54410;48.694;8.934;2024-03-23T14:23:18;3.27;;;2.40;;
67595;SDS011;54410;48.694;8.934;2024-03-23T14:25:44;5.25;;;2.60;;
67595;SDS011;54410;48.694;8.934;2024-03-23T14:28:10;4.77;;;2.43;;
67595;SDS011;54410;48.694;8.934;2024-03-23T14:30:40;3.27;;;2.90;;
67595;SDS011;54410;48.694;8.934;2024-03-23T14:33:06;4.77;;;2.60;;
67595;SDS011;54410;48.694;8.934;2024-03-23T14:35:32;2.63;;;2.30;;
67595;SDS011;54410;48.694;8.934;2024-03-23T14:37:58;3.53;;;2.40;;
67595;SDS011;54410;48.694;8.934;2024-03-23T14:40:24;4.77;;;2.73;;
67595;SDS011;54410;48.694;8.934;2024-03-23T14:42:54;4.43;;;3.50;;
67595;SDS011;54410;48.694;8.934;2024-03-23T14:45:20;5.07;;;2.90;;
67595;SDS011;54410;48.694;8.934;2024-03-23T14:47:46;3.17;;;2.43;;
67595;SDS011;54410;48.694;8.934;2024-03-23T14:50:12;5.30;;;2.90;;
67595;SDS011;54410;48.694;8.934;2024-03-23T14:52:41;3.10;;;2.53;;
67595;SDS011;54410;48.694;8.934;2024-03-23T14:55:07;3.00;;;2.70;;
67595;SDS011;54410;48.694;8.934;2024-03-23T14:57:34;3.27;;;2.67;;
67595;SDS011;54410;48.694;8.934;2024-03-23T15:00:00;2.77;;;2.40;;
67595;SDS011;54410;48.694;8.934;2024-03-23T15:02:26;6.57;;;2.60;;
67595;SDS011;54410;48.694;8.934;2024-03-23T15:04:53;2.77;;;2.60;;
67595;SDS011;54410;48.694;8.934;2024-03-23T15:07:19;3.40;;;2.37;;
67595;SDS011;54410;48.694;8.934;2024-03-23T15:09:45;5.07;;;2.63;;
67595;SDS011;54410;48.694;8.934;2024-03-23T15:12:11;2.60;;;2.40;;
67595;SDS011;54410;48.694;8.934;2024-03-23T15:14:37;3.00;;;2.50;;
67595;SDS011;54410;48.694;8.934;2024-03-23T15:17:03;5.43;;;2.73;;
67595;SDS011;54410;48.694;8.934;2024-03-23T15:19:32;2.60;;;2.40;;
67595;SDS011;54410;48.694;8.934;2024-03-23T15:21:57;2.37;;;2.27;;
67595;SDS011;54410;48.694;8.934;2024-03-23T15:24:23;3.00;;;2.30;;
67595;SDS011;54410;48.694;8.934;2024-03-23T15:26:50;3.80;;;3.00;;
67595;SDS011;54410;48.694;8.934;2024-03-23T15:29:17;3.23;;;2.30;;
67595;SDS011;54410;48.694;8.934;2024-03-23T15:31:43;3.93;;;2.33;;
67595;SDS011;54410;48.694;8.934;2024-03-23T15:34:11;3.70;;;2.70;;
67595;SDS011;54410;48.694;8.934;2024-03-23T15:36:37;2.70;;;2.50;;
67595;SDS011;54410;48.694;8.934;2024-03-23T15:39:06;4.27;;;2.67;;
67595;SDS011;54410;48.694;8.934;2024-03-23T15:41:31;2.80;;;2.60;;
67595;SDS011;54410;48.694;8.934;2024-03-23T15:44:00;2.83;;;2.63;;
67595;SDS011;54410;48.694;8.934;2024-03-23T15:46:26;2.80;;;2.60;;
67595;SDS011;54410;48.694;8.934;2024-03-23T15:48:52;2.60;;;2.40;;
67595;SDS011;54410;48.694;8.934;2024-03-23T15:51:19;3.13;;;2.40;;